Obelix — 7JAX — position and weather

sailwx.info

Track history (hours):
 
Tides and Currents Weather Stations Pressure Air Temp Water Temp Dewpoint Dewpoint Depression Visibility Wind Speed Wind Dir Waves Ship Positions

Obelix

Last reported at 2014-Sep-02 23:33 UTC. Time now 2014-Sep-02 23:41 UTC.
Position N 34°32' E 135°19'.

Length 74 m; draft 4 m.

Type: Ship (hazmat cat D). MMSI: 432528000.

Date/timePositionNaut miles runAvg speedWind from/ knotsBaromVisibWave heightAir tempDewpointWater temp
2014-Sep-02 23:33N 34°32' E 135°19'0 0.0
2014-Sep-02 22:16N 34°32' E 135°19'0 0.0
2014-Sep-02 21:22N 34°32' E 135°19'0 0.0
2014-Sep-02 19:28N 34°32' E 135°19'0 0.0
2014-Sep-02 18:22N 34°32' E 135°19'0 0.1
2014-Sep-02 17:28N 34°32' E 135°19'0 0.0
2014-Sep-02 16:22N 34°32' E 135°19'0 0.1
2014-Sep-02 15:28N 34°32' E 135°19'0 0.0
2014-Sep-02 14:28N 34°32' E 135°19'0 0.0
2014-Sep-02 13:22N 34°32' E 135°19'0 0.0
2014-Sep-02 12:28N 34°32' E 135°19'0 0.0
2014-Sep-02 11:28N 34°32' E 135°19'0 0.0
2014-Sep-02 10:22N 34°32' E 135°19'0 0.0
2014-Sep-02 09:28N 34°32' E 135°19'0 0.1
2014-Sep-02 08:34N 34°32' E 135°19'1211.9
2014-Sep-02 07:34N 34°35' E 135°05'1211.8
2014-Sep-02 06:32N 34°39' E 134°51'5 0.3
2014-Sep-01 14:16N 34°43' E 134°47'810.8
2014-Sep-01 13:33N 34°37' E 134°54'1212.2
2014-Sep-01 12:33N 34°35' E 135°08'1212.2
2014-Sep-01 11:32N 34°33' E 135°23'2 2.0
2014-Sep-01 10:33N 34°33' E 135°25'0 0.0
2014-Sep-01 09:28N 34°33' E 135°25'0 0.0
2014-Sep-01 08:22N 34°33' E 135°25'0 0.0
2014-Sep-01 07:28N 34°33' E 135°25'0 0.0
2014-Sep-01 06:33N 34°33' E 135°25'10 9.6
2014-Sep-01 05:33N 34°34' E 135°14'1211.7
2014-Sep-01 04:33N 34°37' E 135°00'12010.9
2014-Aug-31 17:33N 33°58' E 132°43'1812.8
2014-Aug-31 16:09N 33°50' E 132°24'16 0.7
2014-Aug-30 16:14N 33°57' E 132°41'8 0.3
2014-Aug-29 11:25N 34°05' E 132°39'1011.7
2014-Aug-29 10:33N 34°01' E 132°27'1312.1
2014-Aug-29 09:31N 34°10' E 132°17'2 0.3
2014-Aug-29 02:29N 34°11' E 132°15'3 2.9
2014-Aug-29 01:33N 34°11' E 132°18'0 0.0
2014-Aug-28 23:12N 34°11' E 132°18'0 0.1
2014-Aug-28 22:24N 34°11' E 132°18'0 0.0
2014-Aug-28 21:33N 34°11' E 132°18'0 0.0
2014-Aug-28 20:18N 34°11' E 132°18'4 5.7
2014-Aug-28 19:33N 34°08' E 132°21'1310.3
2014-Aug-28 18:18N 34°04' E 132°36'11912.1
2014-Aug-28 08:24N 34°36' E 134°55'7 8.5
2014-Aug-28 07:33N 34°36' E 135°04'1110.7
2014-Aug-28 06:33N 34°34' E 135°17'7 7.2
2014-Aug-28 05:33N 34°33' E 135°25'0 0.0
2014-Aug-28 04:31N 34°33' E 135°25'0 0.0
2014-Aug-28 03:19N 34°33' E 135°25'0 0.0
2014-Aug-28 01:10N 34°33' E 135°25'1 2.0
2014-Aug-28 00:32N 34°33' E 135°24'14 1.6
2014-Aug-27 15:20N 34°26' E 135°09'911.1
2014-Aug-27 14:33N 34°20' E 135°01'1212.1
2014-Aug-27 13:33N 34°08' E 135°00'25410.6
2014-Aug-26 13:32N 34°55' E 140°03'1312.4
2014-Aug-26 12:30N 35°02' E 140°16'1212.2
2014-Aug-26 11:31N 35°09' E 140°28'1312.2
2014-Aug-26 10:27N 35°20' E 140°38'1213.5
2014-Aug-26 09:31N 35°30' E 140°46'1513.2
2014-Aug-26 08:24N 35°42' E 140°56'18 9.5
2014-Aug-26 06:33N 35°56' E 140°42'2 0.3
2014-Aug-25 23:04N 35°54' E 140°41'1 1.7
2014-Aug-25 22:33N 35°55' E 140°41'5 4.6
2014-Aug-25 21:32N 35°59' E 140°44'1410.8
2014-Aug-25 20:15N 35°48' E 140°55'5 6.7
2014-Aug-25 19:33N 35°51' E 140°58'1610.4
2014-Aug-25 18:04N 35°36' E 140°55'3011.8
2014-Aug-25 15:32N 35°12' E 140°33'1312.5
2014-Aug-25 14:31N 35°04' E 140°21'1712.8
2014-Aug-25 13:10N 34°55' E 140°03'1113.2
2014-Aug-25 12:21N 34°50' E 139°52'1112.5
2014-Aug-25 11:30N 34°45' E 139°40'24510.7
2014-Aug-24 12:33N 34°05' E 134°47'  
Track history (hours):
 
Tides and Currents Weather Stations Pressure Air Temp Water Temp Dewpoint Dewpoint Depression Visibility Wind Speed Wind Dir Waves Ship Positions

Obelix

Last reported at 2014-Sep-02 23:33 UTC. Time now 2014-Sep-02 23:41 UTC.
Position N 34°32' E 135°19'.

Length 74 m; draft 4 m.

Type: Ship (hazmat cat D). MMSI: 432528000.

Date/timePositionNaut miles runAvg speedWind from/ knotsBaromVisibWave heightAir tempDewpointWater temp
2014-Sep-02 23:33N 34°32' E 135°19'0 0.0
2014-Sep-02 22:16N 34°32' E 135°19'0 0.0
2014-Sep-02 21:22N 34°32' E 135°19'0 0.0
2014-Sep-02 19:28N 34°32' E 135°19'0 0.0
2014-Sep-02 18:22N 34°32' E 135°19'0 0.1
2014-Sep-02 17:28N 34°32' E 135°19'0 0.0
2014-Sep-02 16:22N 34°32' E 135°19'0 0.1
2014-Sep-02 15:28N 34°32' E 135°19'0 0.0
2014-Sep-02 14:28N 34°32' E 135°19'0 0.0
2014-Sep-02 13:22N 34°32' E 135°19'0 0.0
2014-Sep-02 12:28N 34°32' E 135°19'0 0.0
2014-Sep-02 11:28N 34°32' E 135°19'0 0.0
2014-Sep-02 10:22N 34°32' E 135°19'0 0.0
2014-Sep-02 09:28N 34°32' E 135°19'0 0.1
2014-Sep-02 08:34N 34°32' E 135°19'1211.9
2014-Sep-02 07:34N 34°35' E 135°05'1211.8
2014-Sep-02 06:32N 34°39' E 134°51'5 0.3
2014-Sep-01 14:16N 34°43' E 134°47'810.8
2014-Sep-01 13:33N 34°37' E 134°54'1212.2
2014-Sep-01 12:33N 34°35' E 135°08'1212.2
2014-Sep-01 11:32N 34°33' E 135°23'2 2.0
2014-Sep-01 10:33N 34°33' E 135°25'0 0.0
2014-Sep-01 09:28N 34°33' E 135°25'0 0.0
2014-Sep-01 08:22N 34°33' E 135°25'0 0.0
2014-Sep-01 07:28N 34°33' E 135°25'0 0.0
2014-Sep-01 06:33N 34°33' E 135°25'10 9.6
2014-Sep-01 05:33N 34°34' E 135°14'1211.7
2014-Sep-01 04:33N 34°37' E 135°00'12010.9
2014-Aug-31 17:33N 33°58' E 132°43'1812.8
2014-Aug-31 16:09N 33°50' E 132°24'16 0.7
2014-Aug-30 16:14N 33°57' E 132°41'8 0.3
2014-Aug-29 11:25N 34°05' E 132°39'1011.7
2014-Aug-29 10:33N 34°01' E 132°27'1312.1
2014-Aug-29 09:31N 34°10' E 132°17'2 0.3
2014-Aug-29 02:29N 34°11' E 132°15'3 2.9
2014-Aug-29 01:33N 34°11' E 132°18'0 0.0
2014-Aug-28 23:12N 34°11' E 132°18'0 0.1
2014-Aug-28 22:24N 34°11' E 132°18'0 0.0
2014-Aug-28 21:33N 34°11' E 132°18'0 0.0
2014-Aug-28 20:18N 34°11' E 132°18'4 5.7
2014-Aug-28 19:33N 34°08' E 132°21'1310.3
2014-Aug-28 18:18N 34°04' E 132°36'11912.1
2014-Aug-28 08:24N 34°36' E 134°55'7 8.5
2014-Aug-28 07:33N 34°36' E 135°04'1110.7
2014-Aug-28 06:33N 34°34' E 135°17'7 7.2
2014-Aug-28 05:33N 34°33' E 135°25'0 0.0
2014-Aug-28 04:31N 34°33' E 135°25'0 0.0
2014-Aug-28 03:19N 34°33' E 135°25'0 0.0
2014-Aug-28 01:10N 34°33' E 135°25'1 2.0
2014-Aug-28 00:32N 34°33' E 135°24'14 1.6
2014-Aug-27 15:20N 34°26' E 135°09'911.1
2014-Aug-27 14:33N 34°20' E 135°01'1212.1
2014-Aug-27 13:33N 34°08' E 135°00'25410.6
2014-Aug-26 13:32N 34°55' E 140°03'1312.4
2014-Aug-26 12:30N 35°02' E 140°16'1212.2
2014-Aug-26 11:31N 35°09' E 140°28'1312.2
2014-Aug-26 10:27N 35°20' E 140°38'1213.5
2014-Aug-26 09:31N 35°30' E 140°46'1513.2
2014-Aug-26 08:24N 35°42' E 140°56'18 9.5
2014-Aug-26 06:33N 35°56' E 140°42'2 0.3
2014-Aug-25 23:04N 35°54' E 140°41'1 1.7
2014-Aug-25 22:33N 35°55' E 140°41'5 4.6
2014-Aug-25 21:32N 35°59' E 140°44'1410.8
2014-Aug-25 20:15N 35°48' E 140°55'5 6.7
2014-Aug-25 19:33N 35°51' E 140°58'1610.4
2014-Aug-25 18:04N 35°36' E 140°55'3011.8
2014-Aug-25 15:32N 35°12' E 140°33'1312.5
2014-Aug-25 14:31N 35°04' E 140°21'1712.8
2014-Aug-25 13:10N 34°55' E 140°03'1113.2
2014-Aug-25 12:21N 34°50' E 139°52'1112.5
2014-Aug-25 11:30N 34°45' E 139°40'24510.7
2014-Aug-24 12:33N 34°05' E 134°47'  

Dump ship's entire track history